Time;durP1;ratioP1;P1;durP2;ratioP2;P2;SDS_P1;SDS_P2;PMS_P1;PMS_P2;Temp;Humidity;BMP_temperature;BMP_pressure;BME280_temperature;BME280_humidity;BME280_pressure;Samples;Min_cycle;Max_cycle;Signal;HPM_P1;HPM_P2
2021/07/11 00:00:48;;;;;;;12.05;10.80;;;25.30;63.40;;;;;;5033976;28;20033;-62
2021/07/11 00:03:14;;;;;;;11.75;10.50;;;25.30;63.70;;;;;;5034340;28;20045;-62
2021/07/11 00:05:40;;;;;;;11.90;10.30;;;25.30;63.70;;;;;;5033942;28;20056;-62
2021/07/11 00:08:05;;;;;;;12.43;11.00;;;25.30;63.70;;;;;;5034370;28;20087;-61
2021/07/11 00:10:31;;;;;;;13.57;11.15;;;25.30;64.10;;;;;;5033205;28;20080;-62
2021/07/11 00:12:57;;;;;;;13.15;11.43;;;25.30;64.30;;;;;;5033823;28;20388;-63
2021/07/11 00:15:23;;;;;;;13.27;11.07;;;25.20;64.50;;;;;;5033545;28;20033;-62
2021/07/11 00:17:50;;;;;;;13.50;11.68;;;25.20;64.70;;;;;;5033876;28;20017;-62
2021/07/11 00:20:16;;;;;;;13.23;11.48;;;25.10;64.80;;;;;;5032455;28;20022;-61
2021/07/11 00:22:42;;;;;;;12.68;11.38;;;25.10;65.20;;;;;;5033381;28;20032;-62
2021/07/11 00:25:08;;;;;;;12.85;11.48;;;25.10;65.40;;;;;;5033723;28;20061;-62
2021/07/11 00:27:34;;;;;;;12.90;11.45;;;25.10;65.40;;;;;;5033685;28;20384;-62
2021/07/11 00:30:00;;;;;;;12.50;11.20;;;25.00;65.60;;;;;;5033773;28;20022;-62
2021/07/11 00:32:25;;;;;;;12.45;11.10;;;25.00;65.70;;;;;;5033263;28;20028;-62
2021/07/11 00:34:51;;;;;;;13.07;10.93;;;25.00;65.90;;;;;;5033406;28;20416;-61
2021/07/11 00:37:17;;;;;;;13.30;11.73;;;25.00;65.90;;;;;;5032143;28;20109;-61
2021/07/11 00:39:42;;;;;;;12.02;10.73;;;25.00;66.20;;;;;;5032179;28;20030;-61
2021/07/11 00:42:15;;;;;;;13.80;11.23;;;24.90;66.10;;;;;;5033197;28;20033;-62
2021/07/11 00:44:40;;;;;;;13.35;11.93;;;24.90;66.50;;;;;;5033364;28;20369;-61
2021/07/11 00:47:06;;;;;;;13.48;11.05;;;24.90;66.60;;;;;;5033518;28;20032;-62
2021/07/11 00:49:32;;;;;;;13.15;10.73;;;24.80;66.40;;;;;;5032197;28;20029;-61
2021/07/11 00:51:57;;;;;;;11.95;10.75;;;24.80;66.60;;;;;;5032475;28;20408;-62
2021/07/11 00:54:23;;;;;;;12.13;10.82;;;24.80;66.60;;;;;;5037088;28;20049;-61
2021/07/11 00:56:49;;;;;;;11.70;10.32;;;24.80;66.70;;;;;;5053199;28;20099;-62
2021/07/11 00:59:21;;;;;;;12.07;10.48;;;24.70;66.40;;;;;;5023080;28;20418;-62
2021/07/11 01:01:59;;;;;;;12.70;10.90;;;24.70;66.60;;;;;;5032650;28;20022;-62
2021/07/11 01:04:28;;;;;;;11.98;10.73;;;24.60;66.60;;;;;;5032985;28;20052;-62
2021/07/11 01:06:54;;;;;;;11.52;10.00;;;24.60;66.70;;;;;;5032416;28;20144;-62
2021/07/11 01:09:24;;;;;;;11.95;10.55;;;24.60;66.60;;;;;;5031793;28;20135;-63
2021/07/11 01:11:56;;;;;;;12.32;10.48;;;24.60;66.60;;;;;;5015238;28;20025;-62
2021/07/11 01:14:22;;;;;;;11.93;9.55;;;24.60;66.70;;;;;;5031826;28;20044;-62
2021/07/11 01:16:48;;;;;;;11.75;9.63;;;24.50;66.70;;;;;;5031578;28;20472;-62
2021/07/11 01:19:57;;;;;;;11.18;9.65;;;24.40;66.70;;;;;;5031635;28;20093;-62
2021/07/11 01:22:26;;;;;;;11.68;10.15;;;24.30;67.20;;;;;;5049162;28;20427;-62
2021/07/11 01:25:05;;;;;;;9.95;8.93;;;24.20;67.30;;;;;;5033875;28;20025;-62
2021/07/11 01:27:31;;;;;;;10.68;8.85;;;24.10;67.20;;;;;;5019164;28;20069;-62
2021/07/11 01:29:57;;;;;;;11.63;9.18;;;24.10;67.40;;;;;;5044552;28;20069;-62
2021/07/11 01:32:23;;;;;;;11.63;9.07;;;24.00;67.50;;;;;;5062867;28;20072;-62
2021/07/11 01:34:49;;;;;;;11.30;10.10;;;23.90;67.60;;;;;;5031176;28;20451;-62
2021/07/11 01:37:15;;;;;;;11.43;9.68;;;23.90;67.90;;;;;;5032566;28;20048;-62
2021/07/11 01:39:41;;;;;;;10.77;9.43;;;23.90;68.00;;;;;;5032303;28;20179;-62
2021/07/11 01:42:06;;;;;;;13.13;10.27;;;23.80;67.90;;;;;;5031337;28;20113;-62
2021/07/11 01:44:32;;;;;;;11.50;9.43;;;23.80;68.20;;;;;;5031221;28;20090;-62
2021/07/11 01:46:58;;;;;;;11.02;8.95;;;23.70;68.30;;;;;;5031278;28;20029;-62
2021/07/11 01:49:23;;;;;;;10.73;9.25;;;23.70;68.90;;;;;;5030912;28;20056;-62
2021/07/11 01:51:49;;;;;;;11.23;8.77;;;23.70;68.40;;;;;;5030834;28;20029;-61
2021/07/11 01:54:14;;;;;;;10.55;9.20;;;23.60;68.40;;;;;;5031131;28;20405;-62
2021/07/11 01:56:43;;;;;;;10.55;8.70;;;23.60;68.60;;;;;;5032151;28;20108;-62
2021/07/11 01:59:09;;;;;;;10.88;9.32;;;23.60;68.60;;;;;;5030799;28;20057;-61
2021/07/11 02:01:35;;;;;;;11.35;10.02;;;23.60;68.80;;;;;;5064159;28;20465;-62
2021/07/11 02:04:01;;;;;;;10.55;9.45;;;23.50;69.00;;;;;;5032096;28;20048;-62
2021/07/11 02:06:27;;;;;;;11.73;10.10;;;23.50;69.30;;;;;;5063879;28;20042;-62
2021/07/11 02:08:53;;;;;;;14.18;11.05;;;23.50;69.50;;;;;;5030712;28;20496;-62
2021/07/11 02:11:18;;;;;;;12.52;10.52;;;23.50;70.10;;;;;;5030351;28;20544;-62
2021/07/11 02:13:48;;;;;;;12.35;10.65;;;23.50;70.00;;;;;;5030945;28;20095;-62
2021/07/11 02:16:21;;;;;;;12.98;11.35;;;23.40;70.70;;;;;;5031996;28;20017;-61
2021/07/11 02:18:46;;;;;;;12.70;11.40;;;23.40;70.60;;;;;;5014168;28;20068;-62
2021/07/11 02:21:12;;;;;;;13.73;12.00;;;23.50;70.80;;;;;;5030625;28;20064;-62
2021/07/11 02:23:38;;;;;;;12.55;10.88;;;23.40;70.90;;;;;;5029008;28;20564;-62
2021/07/11 02:26:05;;;;;;;12.13;10.43;;;23.50;70.70;;;;;;5030569;28;20028;-61
2021/07/11 02:28:32;;;;;;;12.57;9.27;;;23.40;70.10;;;;;;5031003;28;20106;-61
2021/07/11 02:31:00;;;;;;;10.43;8.43;;;23.40;69.60;;;;;;5030480;28;20013;-62
2021/07/11 02:33:32;;;;;;;10.38;9.00;;;23.40;69.30;;;;;;5063450;28;20482;-62
2021/07/11 02:35:59;;;;;;;10.38;9.00;;;23.50;69.10;;;;;;5062582;28;20049;-62
2021/07/11 02:38:40;;;;;;;10.73;8.80;;;23.50;68.80;;;;;;5030135;28;20026;-62
2021/07/11 02:41:05;;;;;;;10.23;8.27;;;23.50;68.70;;;;;;5030061;28;20021;-62
2021/07/11 02:43:31;;;;;;;10.40;8.68;;;23.50;68.30;;;;;;5030183;28;20025;-62
2021/07/11 02:45:57;;;;;;;10.82;8.43;;;23.60;68.20;;;;;;5031428;28;20029;-62
2021/07/11 02:48:22;;;;;;;9.63;8.02;;;23.60;68.00;;;;;;5031706;28;20037;-62
2021/07/11 02:50:48;;;;;;;9.55;7.47;;;23.60;67.80;;;;;;5029818;28;20037;-62
2021/07/11 02:53:20;;;;;;;8.60;7.05;;;23.60;67.60;;;;;;5031186;28;20033;-62
2021/07/11 02:55:47;;;;;;;9.75;6.80;;;23.70;67.50;;;;;;5030301;28;20021;-62
2021/07/11 02:58:16;;;;;;;8.50;6.47;;;23.70;67.30;;;;;;5030192;28;20032;-62
2021/07/11 03:00:42;;;;;;;8.18;6.43;;;23.80;67.20;;;;;;5031136;28;20048;-62
2021/07/11 03:03:09;;;;;;;8.70;6.40;;;23.80;67.00;;;;;;5030038;28;20469;-62
2021/07/11 03:05:34;;;;;;;8.25;6.82;;;23.80;66.70;;;;;;5029943;28;20049;-62
2021/07/11 03:08:00;;;;;;;7.70;6.38;;;23.90;66.50;;;;;;5013564;28;20037;-62
2021/07/11 03:10:26;;;;;;;7.57;6.00;;;24.00;66.40;;;;;;5030206;28;20088;-62
2021/07/11 03:12:51;;;;;;;8.20;6.38;;;24.00;66.00;;;;;;5029740;28;20033;-62
2021/07/11 03:15:18;;;;;;;7.93;6.75;;;24.00;65.80;;;;;;5029864;28;20524;-62
2021/07/11 03:17:44;;;;;;;8.25;6.50;;;24.10;65.70;;;;;;5029761;28;20099;-62
2021/07/11 03:20:10;;;;;;;7.20;5.60;;;24.10;65.40;;;;;;5029757;28;20464;-61
2021/07/11 03:22:36;;;;;;;7.30;5.95;;;24.20;65.20;;;;;;5013302;28;20053;-61
2021/07/11 03:25:05;;;;;;;7.90;5.80;;;24.20;65.10;;;;;;5029655;28;20417;-62
2021/07/11 03:27:30;;;;;;;8.27;6.40;;;24.30;65.60;;;;;;5031068;28;20033;-62
2021/07/11 03:30:23;;;;;;;7.15;5.57;;;24.30;64.70;;;;;;5029432;28;20056;-62
2021/07/11 03:33:00;;;;;;;6.80;5.38;;;24.50;64.50;;;;;;5028784;28;20034;-62
2021/07/11 03:35:37;;;;;;;7.38;5.20;;;24.50;64.30;;;;;;5030869;28;20112;-62
2021/07/11 03:38:03;;;;;;;7.07;5.20;;;24.50;64.00;;;;;;5029459;28;20018;-62
2021/07/11 03:40:30;;;;;;;6.57;4.82;;;24.60;63.80;;;;;;5029698;28;20158;-63
2021/07/11 03:43:00;;;;;;;7.03;5.40;;;24.60;63.40;;;;;;5029901;28;20022;-63
2021/07/11 03:45:25;;;;;;;7.50;5.63;;;24.70;63.20;;;;;;5029749;28;20026;-62
2021/07/11 03:47:57;;;;;;;6.85;5.40;;;24.80;62.90;;;;;;5029469;28;20025;-62
2021/07/11 03:50:23;;;;;;;6.85;5.35;;;24.80;62.80;;;;;;5031521;28;20022;-62
2021/07/11 03:52:52;;;;;;;6.68;4.97;;;24.80;62.60;;;;;;5033436;28;20030;-62
2021/07/11 03:55:18;;;;;;;6.72;5.03;;;24.90;62.40;;;;;;5038584;28;20021;-61
2021/07/11 03:57:44;;;;;;;7.40;5.68;;;24.90;62.30;;;;;;5052991;28;20534;-62
2021/07/11 04:00:10;;;;;;;7.88;6.03;;;25.00;62.20;;;;;;5053274;28;20017;-62
2021/07/11 04:02:36;;;;;;;11.52;10.27;;;25.00;62.20;;;;;;5053194;28;20029;-62
2021/07/11 04:05:03;;;;;;;10.98;8.45;;;25.00;62.20;;;;;;5052992;28;20044;-61
2021/07/11 04:07:28;;;;;;;9.35;8.20;;;25.00;62.30;;;;;;5054191;28;20750;-62
2021/07/11 04:09:54;;;;;;;9.40;7.57;;;25.10;62.20;;;;;;5046816;28;20037;-62
2021/07/11 04:12:20;;;;;;;10.07;8.40;;;25.10;62.20;;;;;;5032551;28;20032;-62
2021/07/11 04:14:45;;;;;;;9.43;7.85;;;25.10;62.30;;;;;;5032598;28;20052;-62
2021/07/11 04:17:11;;;;;;;8.75;7.15;;;25.20;62.50;;;;;;5033786;28;20385;-62
2021/07/11 04:19:40;;;;;;;8.82;7.47;;;25.20;62.40;;;;;;5032736;28;20507;-63
2021/07/11 04:22:06;;;;;;;9.38;7.25;;;25.20;62.40;;;;;;5032803;28;20044;-62
2021/07/11 04:24:33;;;;;;;9.88;8.07;;;25.30;62.40;;;;;;5032782;28;20469;-63
2021/07/11 04:26:58;;;;;;;10.95;8.65;;;25.30;62.30;;;;;;5031395;28;20439;-62
2021/07/11 04:29:24;;;;;;;10.00;8.77;;;25.30;62.10;;;;;;5032113;28;20025;-62
2021/07/11 04:31:50;;;;;;;9.00;7.35;;;25.40;62.00;;;;;;5032515;28;20018;-63
2021/07/11 04:34:27;;;;;;;9.05;8.00;;;25.40;62.00;;;;;;5032729;28;20021;-62
2021/07/11 04:36:53;;;;;;;9.90;8.32;;;25.50;62.30;;;;;;5033753;28;20184;-61
2021/07/11 04:39:19;;;;;;;10.40;8.40;;;25.50;62.20;;;;;;5033321;28;20025;-62
2021/07/11 04:41:45;;;;;;;10.18;8.73;;;25.50;62.10;;;;;;5033590;28;20388;-62
2021/07/11 04:44:10;;;;;;;9.00;7.88;;;25.50;62.10;;;;;;5033348;28;20391;-62
2021/07/11 04:46:36;;;;;;;9.88;8.27;;;25.50;62.00;;;;;;5032974;28;20029;-62
2021/07/11 04:49:02;;;;;;;10.57;8.43;;;25.60;62.10;;;;;;5033749;28;20079;-62
2021/07/11 04:51:27;;;;;;;9.70;8.70;;;25.60;62.30;;;;;;5032000;28;20033;-62
2021/07/11 04:53:53;;;;;;;9.68;8.63;;;25.60;62.20;;;;;;5033554;28;20039;-62
2021/07/11 04:56:19;;;;;;;9.88;8.57;;;25.60;62.10;;;;;;5033374;28;20087;-62
2021/07/11 04:58:44;;;;;;;10.98;9.30;;;25.60;62.30;;;;;;5032260;28;20021;-62
2021/07/11 05:01:10;;;;;;;11.98;10.25;;;25.60;62.50;;;;;;5030968;28;20025;-63
2021/07/11 05:03:35;;;;;;;12.88;11.18;;;25.70;62.70;;;;;;5031705;28;20037;-62
2021/07/11 05:06:01;;;;;;;13.00;11.70;;;25.70;63.20;;;;;;5032894;28;20050;-62
2021/07/11 05:08:27;;;;;;;11.70;10.52;;;25.70;63.60;;;;;;5033196;28;20025;-62
2021/07/11 05:10:52;;;;;;;11.98;10.65;;;25.70;63.60;;;;;;5015489;28;20105;-63
2021/07/11 05:13:18;;;;;;;11.20;10.00;;;25.70;63.60;;;;;;5031831;28;20551;-62
2021/07/11 05:15:44;;;;;;;12.45;9.77;;;25.80;63.50;;;;;;5032730;28;20022;-62
2021/07/11 05:18:09;;;;;;;10.02;8.65;;;25.80;63.30;;;;;;5033028;28;20025;-62
2021/07/11 05:20:35;;;;;;;10.35;8.68;;;25.90;63.10;;;;;;5032633;28;20021;-62
2021/07/11 05:23:00;;;;;;;9.02;8.00;;;26.00;63.00;;;;;;5032875;28;20025;-62
2021/07/11 05:25:30;;;;;;;9.55;7.75;;;26.00;62.70;;;;;;5047735;28;20080;-62
2021/07/11 05:27:56;;;;;;;10.90;8.57;;;26.00;62.00;;;;;;5026235;28;20032;-61
2021/07/11 05:30:22;;;;;;;8.40;7.43;;;26.10;61.70;;;;;;5014769;28;20021;-62
2021/07/11 05:32:47;;;;;;;8.32;7.25;;;26.20;61.60;;;;;;5032177;28;20460;-62
2021/07/11 05:35:13;;;;;;;8.55;7.43;;;26.20;61.00;;;;;;5031340;28;20543;-62
2021/07/11 05:37:39;;;;;;;7.63;6.65;;;26.20;60.70;;;;;;5032584;28;20026;-63
2021/07/11 05:40:07;;;;;;;9.70;7.22;;;26.20;60.60;;;;;;5032473;28;20154;-66
2021/07/11 05:42:33;;;;;;;9.20;8.30;;;26.30;60.30;;;;;;5032443;28;20055;-63
2021/07/11 05:44:59;;;;;;;8.73;7.80;;;26.30;60.10;;;;;;5032356;28;20037;-62
2021/07/11 05:47:25;;;;;;;9.13;7.30;;;26.30;59.70;;;;;;5030749;28;20030;-62
2021/07/11 05:49:51;;;;;;;8.35;7.03;;;26.30;59.40;;;;;;5031950;28;20026;-64
2021/07/11 05:52:16;;;;;;;7.43;6.38;;;26.30;59.40;;;;;;5032092;28;20385;-63
2021/07/11 05:54:42;;;;;;;8.88;7.68;;;26.40;59.60;;;;;;5032544;28;20052;-63
2021/07/11 05:57:08;;;;;;;10.18;7.95;;;26.50;59.60;;;;;;5032336;28;20025;-63
2021/07/11 05:59:33;;;;;;;8.43;7.20;;;26.50;59.40;;;;;;5031235;28;20064;-63
2021/07/11 06:01:59;;;;;;;8.63;7.15;;;26.50;59.30;;;;;;5059185;28;20503;-62
2021/07/11 06:04:25;;;;;;;9.38;6.75;;;26.50;59.10;;;;;;5043993;28;20034;-63
2021/07/11 06:06:50;;;;;;;9.50;8.35;;;26.60;59.30;;;;;;5019968;28;20034;-63
2021/07/11 06:09:16;;;;;;;9.27;8.00;;;26.60;59.30;;;;;;5030327;28;20120;-63
2021/07/11 06:11:41;;;;;;;9.15;8.13;;;26.70;59.60;;;;;;5031688;28;20104;-62
2021/07/11 06:14:07;;;;;;;8.88;7.97;;;26.70;59.40;;;;;;5031616;28;20473;-63
2021/07/11 06:16:33;;;;;;;9.52;8.52;;;26.80;59.20;;;;;;5031660;28;20029;-64
2021/07/11 06:18:59;;;;;;;9.05;7.82;;;26.80;59.10;;;;;;5031966;28;20380;-63
2021/07/11 06:21:24;;;;;;;9.00;7.90;;;26.80;59.10;;;;;;5031564;28;20055;-62
2021/07/11 06:23:50;;;;;;;8.60;7.28;;;26.90;59.00;;;;;;5031570;28;20025;-64
2021/07/11 06:26:16;;;;;;;8.77;7.35;;;26.90;58.90;;;;;;5031190;28;20033;-64
2021/07/11 06:28:41;;;;;;;10.52;8.32;;;27.00;59.00;;;;;;5031396;28;20034;-63
2021/07/11 06:31:07;;;;;;;9.05;7.88;;;27.10;59.10;;;;;;5031706;28;20021;-63
2021/07/11 06:33:32;;;;;;;8.65;7.72;;;27.20;59.00;;;;;;5031650;28;20380;-63
2021/07/11 06:35:58;;;;;;;11.30;8.88;;;27.30;59.40;;;;;;5031391;28;20361;-63
2021/07/11 06:38:24;;;;;;;9.77;8.73;;;27.50;58.40;;;;;;5030154;28;20079;-63
2021/07/11 06:40:49;;;;;;;10.52;8.60;;;27.60;57.80;;;;;;5031760;28;20036;-64
2021/07/11 06:43:15;;;;;;;9.43;8.07;;;27.70;57.60;;;;;;5030576;28;20029;-63
2021/07/11 06:45:41;;;;;;;9.30;8.27;;;27.80;57.50;;;;;;5035305;28;20836;-62
2021/07/11 06:48:07;;;;;;;9.57;8.15;;;27.90;57.40;;;;;;5033823;28;20029;-63
2021/07/11 06:50:33;;;;;;;8.80;7.43;;;28.00;56.90;;;;;;5031044;28;20027;-64
2021/07/11 06:52:58;;;;;;;8.45;7.55;;;28.10;57.50;;;;;;5030507;28;20025;-63
2021/07/11 06:55:24;;;;;;;8.15;6.90;;;28.30;56.80;;;;;;5031384;28;20095;-64
2021/07/11 06:57:49;;;;;;;8.73;7.82;;;28.40;56.70;;;;;;5031476;28;20028;-62
2021/07/11 07:00:16;;;;;;;8.23;7.32;;;28.60;56.20;;;;;;5031186;28;20091;-63
2021/07/11 07:02:41;;;;;;;10.77;8.80;;;28.70;56.00;;;;;;5031084;28;20433;-62
2021/07/11 07:05:08;;;;;;;8.02;7.22;;;28.90;55.60;;;;;;5030895;28;20080;-64
2021/07/11 07:07:35;;;;;;;9.15;7.97;;;29.00;55.60;;;;;;5030387;28;20029;-66
2021/07/11 07:10:04;;;;;;;8.40;7.30;;;29.10;55.30;;;;;;5030837;28;20028;-61
2021/07/11 07:12:30;;;;;;;8.23;7.28;;;29.20;55.20;;;;;;5030814;28;20017;-61
2021/07/11 07:14:55;;;;;;;8.60;7.70;;;29.30;54.80;;;;;;5031149;28;20100;-61
2021/07/11 07:17:21;;;;;;;8.88;7.40;;;29.40;54.50;;;;;;5022408;28;20028;-64
2021/07/11 07:19:46;;;;;;;7.60;6.80;;;29.50;54.20;;;;;;5033971;28;20427;-63
2021/07/11 07:22:12;;;;;;;9.25;7.05;;;29.60;54.30;;;;;;5057174;28;20073;-62
2021/07/11 07:24:38;;;;;;;7.97;7.13;;;29.70;53.90;;;;;;5011900;28;20034;-63
2021/07/11 07:27:04;;;;;;;8.00;6.55;;;29.80;53.80;;;;;;5013759;28;20172;-63
2021/07/11 07:29:29;;;;;;;7.60;6.80;;;29.90;53.30;;;;;;5015293;28;20063;-63
2021/07/11 07:31:55;;;;;;;9.13;6.57;;;30.00;52.70;;;;;;5030791;28;20022;-65
2021/07/11 07:34:21;;;;;;;7.95;7.15;;;30.10;52.50;;;;;;5019534;28;20021;-64
2021/07/11 07:36:46;;;;;;;7.95;6.97;;;30.20;51.90;;;;;;5033438;28;20025;-62
2021/07/11 07:39:12;;;;;;;8.40;7.07;;;30.20;51.90;;;;;;5034095;28;20025;-63
2021/07/11 07:41:37;;;;;;;7.45;6.65;;;30.30;52.00;;;;;;5016605;28;20116;-62
2021/07/11 07:44:04;;;;;;;7.03;6.32;;;30.30;52.10;;;;;;5033501;28;20030;-64
2021/07/11 07:46:30;;;;;;;8.52;7.53;;;30.40;52.10;;;;;;5033811;28;20026;-64
2021/07/11 07:48:56;;;;;;;9.20;7.18;;;30.50;51.80;;;;;;5034678;28;20033;-63
2021/07/11 07:51:22;;;;;;;7.20;5.90;;;30.60;51.40;;;;;;5033966;28;20049;-64
2021/07/11 07:53:47;;;;;;;7.85;5.90;;;30.70;51.60;;;;;;5032716;28;20026;-64
2021/07/11 07:56:13;;;;;;;7.95;6.70;;;30.80;51.60;;;;;;5033989;28;20028;-62
2021/07/11 07:58:38;;;;;;;7.65;6.50;;;30.90;51.00;;;;;;5033078;28;20030;-64
2021/07/11 08:01:04;;;;;;;7.45;6.65;;;31.00;51.10;;;;;;5033960;28;20087;-64
2021/07/11 08:03:30;;;;;;;7.53;6.43;;;31.00;51.00;;;;;;5033471;28;20052;-63
2021/07/11 08:05:55;;;;;;;7.05;5.70;;;31.20;51.40;;;;;;5033498;28;20049;-63
2021/07/11 08:08:21;;;;;;;6.95;5.88;;;31.40;51.30;;;;;;5034217;28;20029;-62
2021/07/11 08:10:47;;;;;;;6.95;5.88;;;31.60;51.20;;;;;;5034416;28;20032;-63
2021/07/11 08:13:12;;;;;;;8.48;5.88;;;31.80;51.30;;;;;;5033574;28;20097;-65
2021/07/11 08:15:38;;;;;;;7.85;7.00;;;32.00;50.80;;;;;;5033708;28;20037;-64
2021/07/11 08:18:04;;;;;;;8.02;6.90;;;32.30;49.90;;;;;;5031961;28;20524;-64
2021/07/11 08:20:29;;;;;;;7.82;6.90;;;32.50;49.60;;;;;;5033978;28;20044;-64
2021/07/11 08:22:55;;;;;;;6.68;5.95;;;32.70;49.80;;;;;;5032052;28;20025;-63
2021/07/11 08:25:21;;;;;;;7.55;6.50;;;32.90;49.70;;;;;;5033801;28;20044;-63
2021/07/11 08:27:47;;;;;;;7.28;6.53;;;33.20;49.50;;;;;;5032666;28;20028;-63
2021/07/11 08:30:13;;;;;;;8.50;7.65;;;33.50;49.30;;;;;;5032282;28;20052;-63
2021/07/11 08:32:39;;;;;;;7.97;6.75;;;33.90;48.80;;;;;;5033296;28;20057;-63
2021/07/11 08:35:05;;;;;;;7.63;6.35;;;34.10;48.10;;;;;;5027141;28;20057;-64
2021/07/11 08:37:31;;;;;;;7.55;6.40;;;34.40;47.50;;;;;;5014315;28;20084;-64
2021/07/11 08:39:57;;;;;;;6.63;5.90;;;34.70;46.70;;;;;;5029678;28;20029;-64
2021/07/11 08:42:23;;;;;;;7.35;6.10;;;34.80;46.60;;;;;;5032793;28;20014;-64
2021/07/11 08:44:50;;;;;;;6.72;5.47;;;35.00;46.00;;;;;;5032638;28;20521;-63
2021/07/11 08:47:15;;;;;;;7.40;5.57;;;35.30;45.60;;;;;;5031568;28;20033;-64
2021/07/11 08:49:41;;;;;;;7.18;4.95;;;35.50;45.80;;;;;;5032677;28;20396;-63
2021/07/11 08:52:06;;;;;;;5.80;5.18;;;35.90;45.70;;;;;;5015049;28;20032;-63
2021/07/11 08:54:32;;;;;;;7.60;5.38;;;36.20;44.70;;;;;;5031635;28;20028;-64
2021/07/11 08:57:00;;;;;;;5.82;5.20;;;36.50;43.20;;;;;;5032585;28;20029;-64
2021/07/11 08:59:27;;;;;;;6.75;5.30;;;36.70;42.60;;;;;;5014226;28;20038;-63
2021/07/11 09:01:53;;;;;;;7.10;4.90;;;36.90;41.10;;;;;;5030631;28;20021;-63
2021/07/11 09:04:18;;;;;;;6.32;4.95;;;36.70;39.90;;;;;;5032759;28;20374;-65
2021/07/11 09:06:56;;;;;;;6.50;4.47;;;36.50;40.20;;;;;;5032489;28;20029;-63
2021/07/11 09:09:22;;;;;;;5.97;4.40;;;36.40;40.80;;;;;;5032545;28;20025;-63
2021/07/11 09:12:01;;;;;;;5.93;4.60;;;36.50;41.70;;;;;;5032982;28;20041;-65
2021/07/11 09:14:27;;;;;;;6.18;4.70;;;36.80;40.20;;;;;;5032324;28;20076;-65
2021/07/11 09:16:54;;;;;;;5.70;5.07;;;37.00;40.90;;;;;;5033187;28;20092;-64
2021/07/11 09:19:23;;;;;;;7.50;5.10;;;37.40;40.60;;;;;;5032979;28;20040;-65
2021/07/11 09:21:56;;;;;;;6.30;5.40;;;37.90;40.50;;;;;;5033077;28;20040;-64
2021/07/11 09:24:23;;;;;;;7.18;4.88;;;38.40;40.20;;;;;;5032737;28;20048;-64
2021/07/11 09:26:51;;;;;;;5.15;4.22;;;38.80;39.20;;;;;;5030718;28;20026;-68
2021/07/11 09:29:27;;;;;;;6.20;4.40;;;39.20;39.50;;;;;;5031811;28;20029;-64
2021/07/11 09:31:53;;;;;;;5.30;4.22;;;39.60;37.80;;;;;;5014291;28;20045;-65
2021/07/11 09:34:23;;;;;;;5.75;4.22;;;39.80;37.90;;;;;;5032457;28;20033;-63
2021/07/11 09:37:02;;;;;;;5.13;4.00;;;40.10;37.20;;;;;;5032717;28;20096;-65
2021/07/11 09:39:28;;;;;;;5.70;3.88;;;40.30;35.70;;;;;;5015018;28;20075;-64
2021/07/11 09:41:53;;;;;;;5.35;4.22;;;40.40;36.80;;;;;;5032618;28;20029;-65
2021/07/11 09:44:19;;;;;;;5.93;4.70;;;40.60;36.50;;;;;;5031228;28;20025;-64
2021/07/11 09:46:45;;;;;;;6.18;4.18;;;40.80;36.10;;;;;;5032309;28;20100;-63
2021/07/11 09:49:17;;;;;;;5.68;4.50;;;40.90;36.40;;;;;;5013554;28;20026;-64
2021/07/11 09:51:43;;;;;;;6.20;4.45;;;41.10;36.40;;;;;;5030235;28;20120;-66
2021/07/11 09:54:13;;;;;;;4.88;3.95;;;41.40;35.30;;;;;;5028847;28;20100;-64
2021/07/11 09:56:44;;;;;;;6.65;4.85;;;41.50;35.50;;;;;;5024328;28;20411;-63
2021/07/11 09:59:11;;;;;;;6.30;5.20;;;41.70;34.10;;;;;;5030109;28;20044;-64
2021/07/11 10:01:41;;;;;;;6.22;4.70;;;41.70;33.90;;;;;;5028162;28;20025;-64
2021/07/11 10:04:07;;;;;;;5.03;3.90;;;41.80;34.20;;;;;;5027502;28;20392;-63
2021/07/11 10:06:34;;;;;;;4.97;3.65;;;41.80;34.30;;;;;;5027284;28;20080;-65
2021/07/11 10:09:01;;;;;;;4.95;4.00;;;42.10;34.30;;;;;;5022393;28;20036;-64
2021/07/11 10:11:26;;;;;;;5.00;3.65;;;42.40;33.20;;;;;;5031074;28;20021;-64
2021/07/11 10:13:52;;;;;;;5.18;3.58;;;42.40;33.20;;;;;;5020041;28;20014;-64
2021/07/11 10:16:18;;;;;;;5.40;3.90;;;42.40;33.30;;;;;;5033885;28;20502;-65
2021/07/11 10:18:44;;;;;;;5.40;4.30;;;42.60;33.10;;;;;;5038626;28;20037;-64
2021/07/11 10:21:11;;;;;;;5.82;4.53;;;42.70;33.40;;;;;;5024715;28;20022;-64
2021/07/11 10:23:38;;;;;;;6.00;4.70;;;42.80;33.30;;;;;;5028624;28;20060;-64
2021/07/11 10:26:11;;;;;;;6.55;4.68;;;42.90;33.90;;;;;;5024938;28;20025;-64
2021/07/11 10:28:37;;;;;;;5.65;4.22;;;43.00;32.80;;;;;;5018456;28;20026;-65
2021/07/11 10:31:04;;;;;;;6.40;4.93;;;43.10;32.50;;;;;;5019126;28;20437;-63
2021/07/11 10:33:30;;;;;;;5.30;4.50;;;43.20;31.80;;;;;;5023405;28;20024;-65
2021/07/11 10:35:55;;;;;;;5.35;4.05;;;43.10;31.40;;;;;;5010921;28;20030;-64
2021/07/11 10:38:39;;;;;;;5.10;3.70;;;42.90;32.00;;;;;;5025711;28;20026;-66
2021/07/11 10:41:16;;;;;;;4.70;3.63;;;42.90;32.40;;;;;;5018680;28;20026;-67
2021/07/11 10:43:58;;;;;;;4.97;3.67;;;43.10;32.40;;;;;;5021281;28;20087;-65
2021/07/11 10:46:56;;;;;;;5.88;3.90;;;43.40;32.20;;;;;;5029590;28;20032;-63
2021/07/11 10:49:30;;;;;;;5.22;3.83;;;43.90;31.60;;;;;;5018595;28;20037;-63
2021/07/11 10:51:58;;;;;;;5.55;3.70;;;43.90;31.70;;;;;;5010926;28;20152;-64
2021/07/11 10:54:34;;;;;;;5.32;4.13;;;43.80;31.60;;;;;;5011493;28;20014;-63
2021/07/11 10:57:02;;;;;;;6.10;4.10;;;43.60;30.80;;;;;;5017808;28;20026;-63
2021/07/11 10:59:42;;;;;;;5.13;3.83;;;43.40;31.30;;;;;;5031478;28;20040;-68
2021/07/11 11:02:20;;;;;;;6.57;4.70;;;43.50;31.50;;;;;;5035469;28;20126;-66
2021/07/11 11:05:01;;;;;;;4.97;3.90;;;43.80;31.00;;;;;;5035345;28;20099;-64
2021/07/11 11:07:41;;;;;;;6.20;3.90;;;44.00;31.30;;;;;;5055046;28;20026;-63
2021/07/11 11:10:16;;;;;;;4.88;3.80;;;44.20;31.00;;;;;;5032452;28;20116;-64
2021/07/11 11:12:42;;;;;;;5.22;4.32;;;44.30;30.40;;;;;;5031428;28;20017;-64
2021/07/11 11:15:19;;;;;;;5.85;4.70;;;44.40;31.10;;;;;;5048928;28;20025;-64
2021/07/11 11:17:44;;;;;;;5.63;4.40;;;44.70;30.80;;;;;;5033827;28;20018;-64
2021/07/11 11:20:14;;;;;;;5.35;4.47;;;45.00;30.50;;;;;;5032971;28;20025;-62
2021/07/11 11:22:55;;;;;;;5.30;4.30;;;45.30;30.00;;;;;;5017097;28;20029;-63
2021/07/11 11:25:21;;;;;;;6.22;3.75;;;45.30;30.00;;;;;;5031217;28;20053;-64
2021/07/11 11:27:51;;;;;;;4.97;3.90;;;45.40;30.20;;;;;;5049400;28;20049;-64
2021/07/11 11:30:17;;;;;;;;;;;45.60;30.20;;;;;;5032840;28;20051;-64
2021/07/11 11:32:51;;;;;;;5.43;3.80;;;45.60;30.00;;;;;;5034446;28;20396;-64
2021/07/11 11:35:20;;;;;;;5.13;3.92;;;45.80;30.00;;;;;;5064077;28;20025;-63
2021/07/11 11:37:48;;;;;;;5.25;4.00;;;46.00;29.90;;;;;;5034093;28;20048;-63
2021/07/11 11:40:13;;;;;;;5.10;4.20;;;46.10;30.00;;;;;;5033991;28;20523;-64
2021/07/11 11:43:06;;;;;;;5.32;3.63;;;46.30;30.40;;;;;;5034157;28;20025;-64
2021/07/11 11:45:33;;;;;;;6.15;3.80;;;46.50;29.50;;;;;;5053055;28;20533;-63
2021/07/11 11:48:09;;;;;;;4.80;3.67;;;46.70;29.80;;;;;;5032754;28;20472;-63
2021/07/11 11:50:36;;;;;;;5.18;3.72;;;47.00;29.70;;;;;;5033456;28;20543;-63
2021/07/11 11:53:07;;;;;;;5.10;3.70;;;47.30;29.60;;;;;;5032481;28;20029;-64
2021/07/11 11:55:33;;;;;;;4.35;3.17;;;47.50;29.40;;;;;;5033722;28;20431;-64
2021/07/11 11:58:04;;;;;;;4.97;3.67;;;47.60;29.50;;;;;;5033840;28;20101;-63
2021/07/11 12:00:30;;;;;;;5.38;3.60;;;47.80;29.40;;;;;;5013329;28;20049;-63
2021/07/11 12:03:04;;;;;;;5.43;4.00;;;48.00;29.30;;;;;;5019971;28;20033;-64
2021/07/11 12:05:30;;;;;;;5.00;3.95;;;48.10;29.00;;;;;;5032840;28;20064;-65
2021/07/11 12:07:57;;;;;;;6.80;4.30;;;48.20;29.00;;;;;;5035841;28;20030;-64
2021/07/11 12:10:22;;;;;;;5.22;3.90;;;48.20;28.70;;;;;;5019290;28;20037;-64
2021/07/11 12:12:59;;;;;;;5.45;4.18;;;48.00;28.70;;;;;;5022448;28;20033;-66
2021/07/11 12:15:30;;;;;;;4.97;4.03;;;47.70;28.50;;;;;;5018613;28;20089;-63
2021/07/11 12:18:01;;;;;;;5.70;4.50;;;47.50;28.60;;;;;;5026253;28;20014;-65
2021/07/11 12:20:27;;;;;;;5.20;4.20;;;47.10;28.40;;;;;;5028783;28;20101;-66
2021/07/11 12:22:52;;;;;;;4.90;3.95;;;46.80;28.60;;;;;;5024850;28;20026;-65
2021/07/11 12:25:25;;;;;;;5.63;3.97;;;46.60;28.80;;;;;;5025315;28;20036;-64
2021/07/11 12:27:59;;;;;;;5.97;3.92;;;46.60;28.90;;;;;;5027840;28;20108;-64
2021/07/11 12:30:25;;;;;;;5.45;3.95;;;46.90;28.90;;;;;;5030571;28;20037;-65
2021/07/11 12:32:53;;;;;;;4.80;4.10;;;47.20;28.70;;;;;;5032231;28;20029;-65
2021/07/11 12:35:22;;;;;;;5.55;4.40;;;47.20;28.50;;;;;;5032439;28;20087;-64
2021/07/11 12:37:59;;;;;;;6.50;3.83;;;47.00;28.50;;;;;;5031216;28;20037;-64
2021/07/11 12:40:29;;;;;;;5.30;4.20;;;47.00;28.70;;;;;;5032157;28;20473;-67
2021/07/11 12:43:28;;;;;;;5.90;4.05;;;47.20;28.70;;;;;;5033272;28;20079;-64
2021/07/11 12:46:01;;;;;;;5.78;3.88;;;47.20;28.60;;;;;;5032081;28;20040;-62